sensor_id;sensor_type;location;lat;lon;timestamp;temperature;humidity
16347;DHT22;8283;48.504;13.734;2023-04-03T00:02:42;10.30;59.20
16347;DHT22;8283;48.504;13.734;2023-04-03T00:05:26;10.30;59.30
16347;DHT22;8283;48.504;13.734;2023-04-03T00:08:10;10.40;60.00
16347;DHT22;8283;48.504;13.734;2023-04-03T00:10:55;10.30;59.50
16347;DHT22;8283;48.504;13.734;2023-04-03T00:13:39;10.40;59.50
16347;DHT22;8283;48.504;13.734;2023-04-03T00:16:24;10.40;59.50
16347;DHT22;8283;48.504;13.734;2023-04-03T00:19:08;10.40;59.60
16347;DHT22;8283;48.504;13.734;2023-04-03T00:21:52;10.50;59.30
16347;DHT22;8283;48.504;13.734;2023-04-03T00:24:37;10.50;59.30
16347;DHT22;8283;48.504;13.734;2023-04-03T00:27:22;10.50;59.00
16347;DHT22;8283;48.504;13.734;2023-04-03T00:30:08;10.50;59.10
16347;DHT22;8283;48.504;13.734;2023-04-03T00:32:54;10.50;59.10
16347;DHT22;8283;48.504;13.734;2023-04-03T00:35:38;10.50;59.40
16347;DHT22;8283;48.504;13.734;2023-04-03T00:38:23;10.50;59.60
16347;DHT22;8283;48.504;13.734;2023-04-03T00:41:07;10.60;59.70
16347;DHT22;8283;48.504;13.734;2023-04-03T00:43:52;10.50;59.70
16347;DHT22;8283;48.504;13.734;2023-04-03T00:46:36;10.50;60.30
16347;DHT22;8283;48.504;13.734;2023-04-03T00:49:21;10.60;59.90
16347;DHT22;8283;48.504;13.734;2023-04-03T00:52:08;10.60;59.90
16347;DHT22;8283;48.504;13.734;2023-04-03T00:54:57;10.60;60.00
16347;DHT22;8283;48.504;13.734;2023-04-03T00:57:45;10.60;59.90
16347;DHT22;8283;48.504;13.734;2023-04-03T01:00:30;10.60;60.00
16347;DHT22;8283;48.504;13.734;2023-04-03T01:03:14;10.60;60.00
16347;DHT22;8283;48.504;13.734;2023-04-03T01:05:59;10.60;60.00
16347;DHT22;8283;48.504;13.734;2023-04-03T01:08:44;10.60;59.80
16347;DHT22;8283;48.504;13.734;2023-04-03T01:11:30;10.60;59.80
16347;DHT22;8283;48.504;13.734;2023-04-03T01:14:15;10.50;59.80
16347;DHT22;8283;48.504;13.734;2023-04-03T01:17:00;10.50;59.90
16347;DHT22;8283;48.504;13.734;2023-04-03T01:19:46;10.60;60.00
16347;DHT22;8283;48.504;13.734;2023-04-03T01:25:54;10.60;59.80
16347;DHT22;8283;48.504;13.734;2023-04-03T01:28:39;10.60;59.80
16347;DHT22;8283;48.504;13.734;2023-04-03T01:34:19;10.50;60.00
16347;DHT22;8283;48.504;13.734;2023-04-03T01:37:04;10.50;60.10
16347;DHT22;8283;48.504;13.734;2023-04-03T01:39:48;10.50;60.20
16347;DHT22;8283;48.504;13.734;2023-04-03T01:42:33;10.50;60.20
16347;DHT22;8283;48.504;13.734;2023-04-03T01:45:17;10.40;60.10
16347;DHT22;8283;48.504;13.734;2023-04-03T01:48:01;10.40;60.10
16347;DHT22;8283;48.504;13.734;2023-04-03T01:50:46;10.40;60.10
16347;DHT22;8283;48.504;13.734;2023-04-03T01:53:30;10.40;60.10
16347;DHT22;8283;48.504;13.734;2023-04-03T01:56:15;10.30;60.10
16347;DHT22;8283;48.504;13.734;2023-04-03T01:58:59;10.30;60.10
16347;DHT22;8283;48.504;13.734;2023-04-03T02:01:44;10.30;60.20
16347;DHT22;8283;48.504;13.734;2023-04-03T02:04:29;10.30;60.30
16347;DHT22;8283;48.504;13.734;2023-04-03T02:07:14;10.30;60.40
16347;DHT22;8283;48.504;13.734;2023-04-03T02:09:58;10.20;60.40
16347;DHT22;8283;48.504;13.734;2023-04-03T02:12:43;10.20;60.40
16347;DHT22;8283;48.504;13.734;2023-04-03T02:15:28;10.20;60.40
16347;DHT22;8283;48.504;13.734;2023-04-03T02:18:12;10.20;60.60
16347;DHT22;8283;48.504;13.734;2023-04-03T02:20:56;10.20;60.70
16347;DHT22;8283;48.504;13.734;2023-04-03T02:23:40;10.20;60.80
16347;DHT22;8283;48.504;13.734;2023-04-03T02:26:24;10.20;60.70
16347;DHT22;8283;48.504;13.734;2023-04-03T02:29:10;10.20;60.70
16347;DHT22;8283;48.504;13.734;2023-04-03T02:31:54;10.20;60.70
16347;DHT22;8283;48.504;13.734;2023-04-03T02:34:40;10.20;60.70
16347;DHT22;8283;48.504;13.734;2023-04-03T02:37:26;10.20;60.70
16347;DHT22;8283;48.504;13.734;2023-04-03T02:40:12;10.20;60.70
16347;DHT22;8283;48.504;13.734;2023-04-03T02:42:56;10.20;60.80
16347;DHT22;8283;48.504;13.734;2023-04-03T02:45:43;10.20;60.80
16347;DHT22;8283;48.504;13.734;2023-04-03T02:48:28;10.20;60.90
16347;DHT22;8283;48.504;13.734;2023-04-03T02:51:12;10.20;60.90
16347;DHT22;8283;48.504;13.734;2023-04-03T02:53:56;10.20;60.90
16347;DHT22;8283;48.504;13.734;2023-04-03T02:56:45;10.20;60.90
16347;DHT22;8283;48.504;13.734;2023-04-03T02:59:30;10.10;60.80
16347;DHT22;8283;48.504;13.734;2023-04-03T03:02:14;10.10;60.80
16347;DHT22;8283;48.504;13.734;2023-04-03T03:04:59;10.10;60.90
16347;DHT22;8283;48.504;13.734;2023-04-03T03:07:43;10.10;61.00
16347;DHT22;8283;48.504;13.734;2023-04-03T03:10:27;10.10;61.00
16347;DHT22;8283;48.504;13.734;2023-04-03T03:13:11;10.50;61.30
16347;DHT22;8283;48.504;13.734;2023-04-03T03:15:56;10.10;61.10
16347;DHT22;8283;48.504;13.734;2023-04-03T03:18:40;10.10;61.10
16347;DHT22;8283;48.504;13.734;2023-04-03T03:21:25;10.10;61.80
16347;DHT22;8283;48.504;13.734;2023-04-03T03:24:10;10.10;61.10
16347;DHT22;8283;48.504;13.734;2023-04-03T03:26:56;10.10;61.20
16347;DHT22;8283;48.504;13.734;2023-04-03T03:29:40;10.10;61.20
16347;DHT22;8283;48.504;13.734;2023-04-03T03:32:25;10.00;61.30
16347;DHT22;8283;48.504;13.734;2023-04-03T03:35:09;10.00;61.30
16347;DHT22;8283;48.504;13.734;2023-04-03T03:37:53;10.00;61.20
16347;DHT22;8283;48.504;13.734;2023-04-03T03:40:38;10.00;61.20
16347;DHT22;8283;48.504;13.734;2023-04-03T03:43:23;10.00;61.30
16347;DHT22;8283;48.504;13.734;2023-04-03T03:46:08;9.90;61.30
16347;DHT22;8283;48.504;13.734;2023-04-03T03:48:53;9.90;61.50
16347;DHT22;8283;48.504;13.734;2023-04-03T03:51:40;9.90;61.60
16347;DHT22;8283;48.504;13.734;2023-04-03T03:54:25;9.90;62.50
16347;DHT22;8283;48.504;13.734;2023-04-03T03:57:10;9.10;61.10
16347;DHT22;8283;48.504;13.734;2023-04-03T03:59:54;9.90;61.70
16347;DHT22;8283;48.504;13.734;2023-04-03T04:02:39;9.90;61.70
16347;DHT22;8283;48.504;13.734;2023-04-03T04:05:23;9.90;61.70
16347;DHT22;8283;48.504;13.734;2023-04-03T04:08:09;9.90;61.70
16347;DHT22;8283;48.504;13.734;2023-04-03T04:10:54;9.90;61.70
16347;DHT22;8283;48.504;13.734;2023-04-03T04:13:39;9.90;61.70
16347;DHT22;8283;48.504;13.734;2023-04-03T04:16:24;9.90;61.70
16347;DHT22;8283;48.504;13.734;2023-04-03T04:19:08;9.90;61.70
16347;DHT22;8283;48.504;13.734;2023-04-03T04:21:55;9.90;61.70
16347;DHT22;8283;48.504;13.734;2023-04-03T04:24:40;9.90;61.80
16347;DHT22;8283;48.504;13.734;2023-04-03T04:27:25;9.90;61.70
16347;DHT22;8283;48.504;13.734;2023-04-03T04:30:11;9.90;61.70
16347;DHT22;8283;48.504;13.734;2023-04-03T04:32:56;9.90;61.70
16347;DHT22;8283;48.504;13.734;2023-04-03T04:35:42;10.00;61.60
16347;DHT22;8283;48.504;13.734;2023-04-03T04:38:27;9.90;61.60
16347;DHT22;8283;48.504;13.734;2023-04-03T04:41:12;9.90;61.60
16347;DHT22;8283;48.504;13.734;2023-04-03T04:43:57;10.60;62.00
16347;DHT22;8283;48.504;13.734;2023-04-03T04:46:42;9.90;61.60
16347;DHT22;8283;48.504;13.734;2023-04-03T04:49:27;9.90;61.70
16347;DHT22;8283;48.504;13.734;2023-04-03T04:52:12;9.90;61.60
16347;DHT22;8283;48.504;13.734;2023-04-03T04:54:58;9.90;61.70
16347;DHT22;8283;48.504;13.734;2023-04-03T04:57:42;9.90;61.70
16347;DHT22;8283;48.504;13.734;2023-04-03T05:00:26;9.90;61.80
16347;DHT22;8283;48.504;13.734;2023-04-03T05:03:11;9.90;61.80
16347;DHT22;8283;48.504;13.734;2023-04-03T05:05:56;9.80;61.70
16347;DHT22;8283;48.504;13.734;2023-04-03T05:08:41;9.80;61.70
16347;DHT22;8283;48.504;13.734;2023-04-03T05:11:26;9.80;61.70
16347;DHT22;8283;48.504;13.734;2023-04-03T05:14:12;9.80;61.90
16347;DHT22;8283;48.504;13.734;2023-04-03T05:16:57;9.80;61.80
16347;DHT22;8283;48.504;13.734;2023-04-03T05:19:45;9.80;61.90
16347;DHT22;8283;48.504;13.734;2023-04-03T05:22:30;9.80;62.00
16347;DHT22;8283;48.504;13.734;2023-04-03T05:25:21;9.80;62.10
16347;DHT22;8283;48.504;13.734;2023-04-03T05:28:06;9.80;62.10
16347;DHT22;8283;48.504;13.734;2023-04-03T05:30:54;9.80;62.10
16347;DHT22;8283;48.504;13.734;2023-04-03T05:33:40;9.80;62.20
16347;DHT22;8283;48.504;13.734;2023-04-03T05:36:26;9.80;62.10
16347;DHT22;8283;48.504;13.734;2023-04-03T05:39:15;9.80;62.20
16347;DHT22;8283;48.504;13.734;2023-04-03T05:42:02;9.80;62.30
16347;DHT22;8283;48.504;13.734;2023-04-03T05:44:47;9.80;62.40
16347;DHT22;8283;48.504;13.734;2023-04-03T05:47:34;9.80;62.50
16347;DHT22;8283;48.504;13.734;2023-04-03T05:50:19;9.90;62.70
16347;DHT22;8283;48.504;13.734;2023-04-03T05:53:05;9.90;62.70
16347;DHT22;8283;48.504;13.734;2023-04-03T05:55:51;9.90;62.70
16347;DHT22;8283;48.504;13.734;2023-04-03T05:58:35;10.00;62.70
16347;DHT22;8283;48.504;13.734;2023-04-03T06:01:20;10.00;62.70
16347;DHT22;8283;48.504;13.734;2023-04-03T06:04:05;10.00;62.80
16347;DHT22;8283;48.504;13.734;2023-04-03T06:06:56;10.10;62.90
16347;DHT22;8283;48.504;13.734;2023-04-03T06:09:41;10.10;62.80
16347;DHT22;8283;48.504;13.734;2023-04-03T06:12:26;10.10;62.80
16347;DHT22;8283;48.504;13.734;2023-04-03T06:15:13;10.20;62.80
16347;DHT22;8283;48.504;13.734;2023-04-03T06:17:58;10.20;62.70
16347;DHT22;8283;48.504;13.734;2023-04-03T06:20:43;10.20;62.60
16347;DHT22;8283;48.504;13.734;2023-04-03T06:23:28;10.30;62.80
16347;DHT22;8283;48.504;13.734;2023-04-03T06:26:12;10.30;62.70
16347;DHT22;8283;48.504;13.734;2023-04-03T06:28:56;10.30;62.80
16347;DHT22;8283;48.504;13.734;2023-04-03T06:31:40;10.40;62.90
16347;DHT22;8283;48.504;13.734;2023-04-03T06:34:25;10.40;62.90
16347;DHT22;8283;48.504;13.734;2023-04-03T06:37:21;10.40;62.60
16347;DHT22;8283;48.504;13.734;2023-04-03T06:40:06;10.50;60.50
16347;DHT22;8283;48.504;13.734;2023-04-03T06:42:51;10.40;61.00
16347;DHT22;8283;48.504;13.734;2023-04-03T06:45:37;10.40;61.30
16347;DHT22;8283;48.504;13.734;2023-04-03T06:48:21;10.40;61.30
16347;DHT22;8283;48.504;13.734;2023-04-03T06:51:05;10.40;61.70
16347;DHT22;8283;48.504;13.734;2023-04-03T06:53:51;10.40;61.30
16347;DHT22;8283;48.504;13.734;2023-04-03T06:56:36;10.40;61.30
16347;DHT22;8283;48.504;13.734;2023-04-03T06:59:21;10.40;60.90
16347;DHT22;8283;48.504;13.734;2023-04-03T07:02:05;10.40;61.30
16347;DHT22;8283;48.504;13.734;2023-04-03T07:04:50;10.50;61.20
16347;DHT22;8283;48.504;13.734;2023-04-03T07:07:34;10.50;60.90
16347;DHT22;8283;48.504;13.734;2023-04-03T07:10:19;10.50;61.10
16347;DHT22;8283;48.504;13.734;2023-04-03T07:13:03;10.50;61.30
16347;DHT22;8283;48.504;13.734;2023-04-03T07:15:48;10.60;61.70
16347;DHT22;8283;48.504;13.734;2023-04-03T07:18:33;10.70;62.00
16347;DHT22;8283;48.504;13.734;2023-04-03T07:21:17;10.80;62.10
16347;DHT22;8283;48.504;13.734;2023-04-03T07:24:02;10.90;62.20
16347;DHT22;8283;48.504;13.734;2023-04-03T07:26:50;11.00;62.20
16347;DHT22;8283;48.504;13.734;2023-04-03T07:29:34;11.20;62.10
16347;DHT22;8283;48.504;13.734;2023-04-03T07:32:19;11.30;61.80
16347;DHT22;8283;48.504;13.734;2023-04-03T07:35:04;11.40;62.40
16347;DHT22;8283;48.504;13.734;2023-04-03T07:37:48;11.50;61.60
16347;DHT22;8283;48.504;13.734;2023-04-03T07:40:33;11.60;61.50
16347;DHT22;8283;48.504;13.734;2023-04-03T07:43:20;11.20;59.40
16347;DHT22;8283;48.504;13.734;2023-04-03T07:46:05;11.80;60.40
16347;DHT22;8283;48.504;13.734;2023-04-03T07:48:49;11.80;60.30
16347;DHT22;8283;48.504;13.734;2023-04-03T07:51:33;11.80;59.60
16347;DHT22;8283;48.504;13.734;2023-04-03T07:54:18;11.90;59.00
16347;DHT22;8283;48.504;13.734;2023-04-03T07:57:03;11.90;57.90
16347;DHT22;8283;48.504;13.734;2023-04-03T07:59:47;11.90;59.00
16347;DHT22;8283;48.504;13.734;2023-04-03T08:02:31;11.90;58.30
16347;DHT22;8283;48.504;13.734;2023-04-03T08:05:19;11.90;57.20
16347;DHT22;8283;48.504;13.734;2023-04-03T08:08:05;12.00;56.80
16347;DHT22;8283;48.504;13.734;2023-04-03T08:10:53;12.10;58.40
16347;DHT22;8283;48.504;13.734;2023-04-03T08:13:37;12.10;58.20
16347;DHT22;8283;48.504;13.734;2023-04-03T08:16:23;12.20;57.80
16347;DHT22;8283;48.504;13.734;2023-04-03T08:19:10;12.30;56.20
16347;DHT22;8283;48.504;13.734;2023-04-03T08:21:57;12.30;56.20
16347;DHT22;8283;48.504;13.734;2023-04-03T08:24:42;12.30;52.20
16347;DHT22;8283;48.504;13.734;2023-04-03T08:27:27;12.30;53.50
16347;DHT22;8283;48.504;13.734;2023-04-03T08:30:13;12.20;53.30
16347;DHT22;8283;48.504;13.734;2023-04-03T08:33:00;12.10;55.60
16347;DHT22;8283;48.504;13.734;2023-04-03T08:35:45;13.20;57.10
16347;DHT22;8283;48.504;13.734;2023-04-03T08:38:30;12.70;56.10
16347;DHT22;8283;48.504;13.734;2023-04-03T08:41:38;12.30;56.00
16347;DHT22;8283;48.504;13.734;2023-04-03T08:44:56;12.40;53.90
16347;DHT22;8283;48.504;13.734;2023-04-03T08:47:49;12.40;54.40
16347;DHT22;8283;48.504;13.734;2023-04-03T08:50:42;12.50;52.40
16347;DHT22;8283;48.504;13.734;2023-04-03T08:53:30;12.50;52.40
16347;DHT22;8283;48.504;13.734;2023-04-03T08:56:18;12.60;55.10
16347;DHT22;8283;48.504;13.734;2023-04-03T08:59:11;12.70;53.50
16347;DHT22;8283;48.504;13.734;2023-04-03T09:01:59;12.70;52.90
16347;DHT22;8283;48.504;13.734;2023-04-03T09:04:45;12.80;55.60
16347;DHT22;8283;48.504;13.734;2023-04-03T09:07:46;13.00;56.00
16347;DHT22;8283;48.504;13.734;2023-04-03T09:10:33;13.30;51.50
16347;DHT22;8283;48.504;13.734;2023-04-03T09:13:34;13.50;54.40
16347;DHT22;8283;48.504;13.734;2023-04-03T09:16:58;13.70;53.60
16347;DHT22;8283;48.504;13.734;2023-04-03T09:19:52;13.90;46.70
16347;DHT22;8283;48.504;13.734;2023-04-03T09:22:41;14.10;52.30
16347;DHT22;8283;48.504;13.734;2023-04-03T09:25:33;14.20;53.80
16347;DHT22;8283;48.504;13.734;2023-04-03T09:28:18;14.40;51.70
16347;DHT22;8283;48.504;13.734;2023-04-03T09:34:06;14.90;46.00
16347;DHT22;8283;48.504;13.734;2023-04-03T09:36:54;15.00;51.60
16347;DHT22;8283;48.504;13.734;2023-04-03T09:39:51;15.10;52.00
16347;DHT22;8283;48.504;13.734;2023-04-03T09:42:40;15.20;50.70
16347;DHT22;8283;48.504;13.734;2023-04-03T09:45:31;15.40;49.30
16347;DHT22;8283;48.504;13.734;2023-04-03T09:48:19;15.50;50.30
16347;DHT22;8283;48.504;13.734;2023-04-03T09:51:04;15.60;49.70
16347;DHT22;8283;48.504;13.734;2023-04-03T09:53:48;15.80;53.10
16347;DHT22;8283;48.504;13.734;2023-04-03T09:56:32;15.90;53.10
16347;DHT22;8283;48.504;13.734;2023-04-03T09:59:19;16.00;49.90
16347;DHT22;8283;48.504;13.734;2023-04-03T10:02:36;16.20;50.00
16347;DHT22;8283;48.504;13.734;2023-04-03T10:05:38;16.20;46.40
16347;DHT22;8283;48.504;13.734;2023-04-03T10:08:34;16.20;43.80
16347;DHT22;8283;48.504;13.734;2023-04-03T10:11:19;16.10;46.90
16347;DHT22;8283;48.504;13.734;2023-04-03T10:14:03;16.60;50.20
16347;DHT22;8283;48.504;13.734;2023-04-03T10:20:02;16.10;43.90
16347;DHT22;8283;48.504;13.734;2023-04-03T10:26:21;16.00;45.00
16347;DHT22;8283;48.504;13.734;2023-04-03T10:32:37;15.60;44.00
16347;DHT22;8283;48.504;13.734;2023-04-03T10:35:39;15.50;44.10
16347;DHT22;8283;48.504;13.734;2023-04-03T10:44:36;15.50;40.90
16347;DHT22;8283;48.504;13.734;2023-04-03T10:47:44;15.30;46.30
16347;DHT22;8283;48.504;13.734;2023-04-03T10:53:47;15.10;44.60
16347;DHT22;8283;48.504;13.734;2023-04-03T10:56:47;15.00;44.60
16347;DHT22;8283;48.504;13.734;2023-04-03T11:02:41;15.10;47.50
16347;DHT22;8283;48.504;13.734;2023-04-03T11:05:49;15.20;48.20
16347;DHT22;8283;48.504;13.734;2023-04-03T11:08:50;15.50;46.40
16347;DHT22;8283;48.504;13.734;2023-04-03T11:11:38;15.80;48.30
16347;DHT22;8283;48.504;13.734;2023-04-03T11:14:29;16.10;49.00
16347;DHT22;8283;48.504;13.734;2023-04-03T11:20:13;16.40;45.40
16347;DHT22;8283;48.504;13.734;2023-04-03T11:23:21;16.40;43.00
16347;DHT22;8283;48.504;13.734;2023-04-03T11:26:13;16.20;45.30
16347;DHT22;8283;48.504;13.734;2023-04-03T11:29:01;16.10;41.40
16347;DHT22;8283;48.504;13.734;2023-04-03T11:34:37;15.60;42.00
16347;DHT22;8283;48.504;13.734;2023-04-03T11:37:47;15.10;41.80
16347;DHT22;8283;48.504;13.734;2023-04-03T11:40:34;14.70;42.80
16347;DHT22;8283;48.504;13.734;2023-04-03T11:43:24;14.40;43.80
16347;DHT22;8283;48.504;13.734;2023-04-03T11:46:10;14.10;44.30
16347;DHT22;8283;48.504;13.734;2023-04-03T11:48:55;13.80;42.70
16347;DHT22;8283;48.504;13.734;2023-04-03T11:51:41;13.60;44.60
16347;DHT22;8283;48.504;13.734;2023-04-03T11:54:43;13.50;45.00
16347;DHT22;8283;48.504;13.734;2023-04-03T12:09:26;13.10;45.40
16347;DHT22;8283;48.504;13.734;2023-04-03T12:12:26;13.20;45.30
16347;DHT22;8283;48.504;13.734;2023-04-03T12:15:44;13.30;46.50
16347;DHT22;8283;48.504;13.734;2023-04-03T12:19:24;13.60;44.10
16347;DHT22;8283;48.504;13.734;2023-04-03T12:24:43;14.40;49.10
16347;DHT22;8283;48.504;13.734;2023-04-03T12:27:33;14.80;49.20
16347;DHT22;8283;48.504;13.734;2023-04-03T12:30:26;15.30;48.70
16347;DHT22;8283;48.504;13.734;2023-04-03T12:33:38;15.70;47.90
16347;DHT22;8283;48.504;13.734;2023-04-03T12:40:08;16.10;43.40
16347;DHT22;8283;48.504;13.734;2023-04-03T12:43:09;16.00;42.60
16347;DHT22;8283;48.504;13.734;2023-04-03T12:48:55;15.60;44.70
16347;DHT22;8283;48.504;13.734;2023-04-03T12:51:45;15.50;43.60
16347;DHT22;8283;48.504;13.734;2023-04-03T12:54:40;15.40;45.80
16347;DHT22;8283;48.504;13.734;2023-04-03T12:57:26;15.50;44.80
16347;DHT22;8283;48.504;13.734;2023-04-03T13:00:32;15.70;46.90
16347;DHT22;8283;48.504;13.734;2023-04-03T13:03:25;15.90;39.80
16347;DHT22;8283;48.504;13.734;2023-04-03T13:06:17;15.80;41.20
16347;DHT22;8283;48.504;13.734;2023-04-03T13:09:02;15.60;41.40
16347;DHT22;8283;48.504;13.734;2023-04-03T13:11:46;15.30;43.10
16347;DHT22;8283;48.504;13.734;2023-04-03T13:14:32;15.10;43.50
16347;DHT22;8283;48.504;13.734;2023-04-03T13:17:17;14.90;44.30
16347;DHT22;8283;48.504;13.734;2023-04-03T13:20:22;14.80;45.50
16347;DHT22;8283;48.504;13.734;2023-04-03T13:23:08;14.90;45.90
16347;DHT22;8283;48.504;13.734;2023-04-03T13:25:53;15.10;44.80
16347;DHT22;8283;48.504;13.734;2023-04-03T13:28:40;15.20;44.90
16347;DHT22;8283;48.504;13.734;2023-04-03T13:31:27;15.40;45.00
16347;DHT22;8283;48.504;13.734;2023-04-03T13:34:17;15.40;43.90
16347;DHT22;8283;48.504;13.734;2023-04-03T13:37:03;15.30;42.40
16347;DHT22;8283;48.504;13.734;2023-04-03T13:42:42;15.10;42.70
16347;DHT22;8283;48.504;13.734;2023-04-03T13:45:31;15.00;43.60
16347;DHT22;8283;48.504;13.734;2023-04-03T13:48:19;14.90;43.80
16347;DHT22;8283;48.504;13.734;2023-04-03T13:53:55;14.90;38.70
16347;DHT22;8283;48.504;13.734;2023-04-03T13:56:40;14.90;42.10
16347;DHT22;8283;48.504;13.734;2023-04-03T13:59:30;14.90;43.60
16347;DHT22;8283;48.504;13.734;2023-04-03T14:02:28;14.90;43.60
16347;DHT22;8283;48.504;13.734;2023-04-03T14:05:13;14.90;41.30
16347;DHT22;8283;48.504;13.734;2023-04-03T14:08:00;14.80;42.70
16347;DHT22;8283;48.504;13.734;2023-04-03T14:10:46;14.80;43.40
16347;DHT22;8283;48.504;13.734;2023-04-03T14:13:32;14.80;43.40
16347;DHT22;8283;48.504;13.734;2023-04-03T14:16:25;14.90;41.90
16347;DHT22;8283;48.504;13.734;2023-04-03T14:19:21;15.00;39.20
16347;DHT22;8283;48.504;13.734;2023-04-03T14:22:25;15.00;39.50
16347;DHT22;8283;48.504;13.734;2023-04-03T14:25:10;14.90;39.70
16347;DHT22;8283;48.504;13.734;2023-04-03T14:27:54;14.70;41.00
16347;DHT22;8283;48.504;13.734;2023-04-03T14:30:39;14.60;42.20
16347;DHT22;8283;48.504;13.734;2023-04-03T14:33:24;14.40;42.30
16347;DHT22;8283;48.504;13.734;2023-04-03T14:36:27;14.30;42.60
16347;DHT22;8283;48.504;13.734;2023-04-03T14:39:17;14.20;41.40
16347;DHT22;8283;48.504;13.734;2023-04-03T14:42:01;14.00;41.90
16347;DHT22;8283;48.504;13.734;2023-04-03T14:44:45;13.80;42.00
16347;DHT22;8283;48.504;13.734;2023-04-03T14:47:30;13.60;41.50
16347;DHT22;8283;48.504;13.734;2023-04-03T14:50:22;13.50;42.30
16347;DHT22;8283;48.504;13.734;2023-04-03T14:53:07;13.40;42.60
16347;DHT22;8283;48.504;13.734;2023-04-03T14:55:52;13.50;43.80
16347;DHT22;8283;48.504;13.734;2023-04-03T14:58:36;13.70;44.80
16347;DHT22;8283;48.504;13.734;2023-04-03T15:01:21;13.90;43.80
16347;DHT22;8283;48.504;13.734;2023-04-03T15:04:17;14.20;43.00
16347;DHT22;8283;48.504;13.734;2023-04-03T15:07:01;14.30;42.80
16347;DHT22;8283;48.504;13.734;2023-04-03T15:09:45;14.40;43.60
16347;DHT22;8283;48.504;13.734;2023-04-03T15:12:30;14.40;41.40
16347;DHT22;8283;48.504;13.734;2023-04-03T15:15:15;14.20;40.60
16347;DHT22;8283;48.504;13.734;2023-04-03T15:18:00;14.00;41.90
16347;DHT22;8283;48.504;13.734;2023-04-03T15:20:44;13.70;40.80
16347;DHT22;8283;48.504;13.734;2023-04-03T15:23:29;12.50;40.40
16347;DHT22;8283;48.504;13.734;2023-04-03T15:26:14;13.20;41.30
16347;DHT22;8283;48.504;13.734;2023-04-03T15:28:58;12.90;42.20
16347;DHT22;8283;48.504;13.734;2023-04-03T15:31:43;12.80;42.50
16347;DHT22;8283;48.504;13.734;2023-04-03T15:34:28;12.70;42.30
16347;DHT22;8283;48.504;13.734;2023-04-03T15:37:12;12.50;42.20
16347;DHT22;8283;48.504;13.734;2023-04-03T15:39:56;12.80;42.30
16347;DHT22;8283;48.504;13.734;2023-04-03T15:42:41;12.20;42.80
16347;DHT22;8283;48.504;13.734;2023-04-03T15:45:28;12.10;42.80
16347;DHT22;8283;48.504;13.734;2023-04-03T15:48:13;12.80;43.20
16347;DHT22;8283;48.504;13.734;2023-04-03T15:50:59;12.10;43.60
16347;DHT22;8283;48.504;13.734;2023-04-03T15:53:44;12.20;44.10
16347;DHT22;8283;48.504;13.734;2023-04-03T15:56:28;12.30;44.00
16347;DHT22;8283;48.504;13.734;2023-04-03T15:59:12;12.40;43.70
16347;DHT22;8283;48.504;13.734;2023-04-03T16:01:57;12.50;43.60
16347;DHT22;8283;48.504;13.734;2023-04-03T16:04:42;12.50;43.10
16347;DHT22;8283;48.504;13.734;2023-04-03T16:07:27;12.50;43.40
16347;DHT22;8283;48.504;13.734;2023-04-03T16:10:13;12.50;43.00
16347;DHT22;8283;48.504;13.734;2023-04-03T16:12:59;12.40;43.30
16347;DHT22;8283;48.504;13.734;2023-04-03T16:15:44;12.40;43.40
16347;DHT22;8283;48.504;13.734;2023-04-03T16:18:29;12.30;43.70
16347;DHT22;8283;48.504;13.734;2023-04-03T16:21:14;12.30;43.40
16347;DHT22;8283;48.504;13.734;2023-04-03T16:24:00;12.30;43.40
16347;DHT22;8283;48.504;13.734;2023-04-03T16:26:45;12.20;43.80
16347;DHT22;8283;48.504;13.734;2023-04-03T16:29:29;12.20;43.90
16347;DHT22;8283;48.504;13.734;2023-04-03T16:32:14;12.10;43.70
16347;DHT22;8283;48.504;13.734;2023-04-03T16:34:59;12.10;44.00
16347;DHT22;8283;48.504;13.734;2023-04-03T16:37:44;12.10;43.80
16347;DHT22;8283;48.504;13.734;2023-04-03T16:40:28;12.10;44.00
16347;DHT22;8283;48.504;13.734;2023-04-03T16:43:12;12.10;43.70
16347;DHT22;8283;48.504;13.734;2023-04-03T16:45:57;12.10;44.00
16347;DHT22;8283;48.504;13.734;2023-04-03T16:48:41;12.00;44.00
16347;DHT22;8283;48.504;13.734;2023-04-03T16:51:26;11.90;42.90
16347;DHT22;8283;48.504;13.734;2023-04-03T16:54:10;11.80;43.40
16347;DHT22;8283;48.504;13.734;2023-04-03T16:56:58;11.70;43.20
16347;DHT22;8283;48.504;13.734;2023-04-03T16:59:42;11.60;43.90
16347;DHT22;8283;48.504;13.734;2023-04-03T17:02:27;11.50;43.90
16347;DHT22;8283;48.504;13.734;2023-04-03T17:05:11;11.50;44.10
16347;DHT22;8283;48.504;13.734;2023-04-03T17:07:55;11.40;44.00
16347;DHT22;8283;48.504;13.734;2023-04-03T17:10:39;11.30;44.30
16347;DHT22;8283;48.504;13.734;2023-04-03T17:13:24;11.30;44.90
16347;DHT22;8283;48.504;13.734;2023-04-03T17:16:16;11.20;44.50
16347;DHT22;8283;48.504;13.734;2023-04-03T17:19:00;11.10;44.60
16347;DHT22;8283;48.504;13.734;2023-04-03T17:21:45;11.00;44.70
16347;DHT22;8283;48.504;13.734;2023-04-03T17:24:29;10.80;44.80
16347;DHT22;8283;48.504;13.734;2023-04-03T17:27:13;10.70;44.90
16347;DHT22;8283;48.504;13.734;2023-04-03T17:29:58;10.70;45.00
16347;DHT22;8283;48.504;13.734;2023-04-03T17:32:43;10.60;45.10
16347;DHT22;8283;48.504;13.734;2023-04-03T17:35:27;10.50;45.10
16347;DHT22;8283;48.504;13.734;2023-04-03T17:38:11;10.50;45.20
16347;DHT22;8283;48.504;13.734;2023-04-03T17:41:06;10.40;45.20
16347;DHT22;8283;48.504;13.734;2023-04-03T17:43:51;10.30;45.40
16347;DHT22;8283;48.504;13.734;2023-04-03T17:46:37;10.20;45.40
16347;DHT22;8283;48.504;13.734;2023-04-03T17:49:22;10.10;45.50
16347;DHT22;8283;48.504;13.734;2023-04-03T17:52:07;10.10;45.80
16347;DHT22;8283;48.504;13.734;2023-04-03T17:54:51;10.00;45.80
16347;DHT22;8283;48.504;13.734;2023-04-03T17:57:36;10.00;45.90
16347;DHT22;8283;48.504;13.734;2023-04-03T18:00:20;9.90;46.10
16347;DHT22;8283;48.504;13.734;2023-04-03T18:03:05;9.80;46.70
16347;DHT22;8283;48.504;13.734;2023-04-03T18:05:49;9.70;46.30
16347;DHT22;8283;48.504;13.734;2023-04-03T18:08:39;9.70;46.30
16347;DHT22;8283;48.504;13.734;2023-04-03T18:11:26;9.60;46.50
16347;DHT22;8283;48.504;13.734;2023-04-03T18:14:12;9.60;46.60
16347;DHT22;8283;48.504;13.734;2023-04-03T18:16:57;9.50;46.40
16347;DHT22;8283;48.504;13.734;2023-04-03T18:19:42;9.50;46.50
16347;DHT22;8283;48.504;13.734;2023-04-03T18:22:26;9.50;46.70
16347;DHT22;8283;48.504;13.734;2023-04-03T18:25:12;9.50;46.70
16347;DHT22;8283;48.504;13.734;2023-04-03T18:27:57;9.50;46.80
16347;DHT22;8283;48.504;13.734;2023-04-03T18:30:43;9.50;46.80
16347;DHT22;8283;48.504;13.734;2023-04-03T18:33:27;9.50;46.80
16347;DHT22;8283;48.504;13.734;2023-04-03T18:36:12;9.50;46.90
16347;DHT22;8283;48.504;13.734;2023-04-03T18:38:56;9.50;46.80
16347;DHT22;8283;48.504;13.734;2023-04-03T18:41:40;9.50;47.00
16347;DHT22;8283;48.504;13.734;2023-04-03T18:44:25;9.50;46.90